Time;durP1;ratioP1;P1;durP2;ratioP2;P2;SDS_P1;SDS_P2;PMS_P1;PMS_P2;Temp;Humidity;BMP_temperature;BMP_pressure;BME280_temperature;BME280_humidity;BME280_pressure;Samples;Min_cycle;Max_cycle;Signal;HPM_P1;HPM_P2
2020/12/28 00:02:20;;;;;;;25.10;14.07;;;;;;;3.12;99.82;97506.81;6119588;23;20021;-85
2020/12/28 00:04:45;;;;;;;23.83;14.80;;;;;;;3.07;99.67;97502.00;6096983;23;20104;-85
2020/12/28 00:07:14;;;;;;;23.40;13.75;;;;;;;3.06;99.90;97500.38;6085364;23;20033;-85
2020/12/28 00:09:39;;;;;;;22.52;13.80;;;;;;;3.10;100.00;97508.81;6097419;23;20010;-85
2020/12/28 00:12:05;;;;;;;24.15;14.05;;;;;;;3.01;99.79;97500.06;6120369;23;20052;-85
2020/12/28 00:14:33;;;;;;;26.30;15.25;;;;;;;2.99;99.93;97496.75;6088824;23;20016;-85
2020/12/28 00:17:16;;;;;;;25.88;15.10;;;;;;;2.96;100.00;97489.94;6088161;23;20794;-85
2020/12/28 00:19:47;;;;;;;27.83;14.32;;;;;;;2.96;99.99;97483.81;6119767;23;20022;-85
2020/12/28 00:22:15;;;;;;;23.52;14.43;;;;;;;2.87;99.74;97493.63;6108517;23;20010;-85
2020/12/28 00:24:46;;;;;;;26.43;14.53;;;;;;;2.84;100.00;97503.75;6121189;23;20431;-85
2020/12/28 00:27:11;;;;;;;23.92;14.35;;;;;;;2.77;99.93;97493.81;6108897;23;20279;-86
2020/12/28 00:29:41;;;;;;;25.33;15.38;;;;;;;2.77;100.00;97499.13;6121317;23;20006;-85
2020/12/28 00:32:07;;;;;;;24.20;14.57;;;;;;;2.68;100.00;97499.28;6084758;23;20010;-85
2020/12/28 00:34:35;;;;;;;25.25;15.82;;;;;;;2.57;99.80;97503.13;6120729;23;20090;-85
2020/12/28 00:37:01;;;;;;;22.20;14.45;;;;;;;2.45;100.00;97500.81;6095887;23;20029;-85
2020/12/28 00:39:26;;;;;;;26.48;15.60;;;;;;;2.39;100.00;97490.88;6121387;23;20006;-85
2020/12/28 00:41:52;;;;;;;26.50;15.80;;;;;;;2.31;100.00;97498.81;6119949;23;20036;-85
2020/12/28 00:44:18;;;;;;;30.27;16.23;;;;;;;2.29;100.00;97495.53;6118761;23;20013;-85
2020/12/28 00:46:46;;;;;;;28.73;16.45;;;;;;;2.30;100.00;97507.81;6116940;23;20014;-85
2020/12/28 00:49:11;;;;;;;32.88;15.85;;;;;;;2.31;100.00;97508.63;6094076;23;20014;-85
2020/12/28 00:51:37;;;;;;;27.55;15.65;;;;;;;2.08;100.00;97502.16;6094599;23;20013;-85
2020/12/28 00:54:08;;;;;;;28.13;15.55;;;;;;;2.09;100.00;97495.88;6118694;23;20014;-85
2020/12/28 00:56:39;;;;;;;27.75;15.23;;;;;;;2.06;100.00;97500.66;6095906;23;20526;-85
2020/12/28 00:59:05;;;;;;;29.40;14.63;;;;;;;1.87;100.00;97493.84;6086282;23;20025;-85
2020/12/28 01:01:30;;;;;;;24.38;13.52;;;;;;;1.90;100.00;97496.19;6111900;23;20062;-85
2020/12/28 01:03:58;;;;;;;25.75;15.20;;;;;;;1.79;100.00;97499.16;6096398;23;20010;-85
2020/12/28 01:06:24;;;;;;;24.67;14.10;;;;;;;1.62;100.00;97496.47;6080775;23;20017;-85
2020/12/28 01:08:52;;;;;;;25.85;14.80;;;;;;;1.62;100.00;97504.41;6113423;23;20436;-85
2020/12/28 01:11:23;;;;;;;28.23;14.73;;;;;;;1.53;100.00;97497.41;6123935;23;20021;-85
2020/12/28 01:13:51;;;;;;;27.58;15.23;;;;;;;1.57;100.00;97496.09;6101177;23;20017;-85
2020/12/28 01:16:16;;;;;;;28.13;15.43;;;;;;;1.60;100.00;97494.97;6124631;23;20018;-85
2020/12/28 01:18:42;;;;;;;28.15;15.90;;;;;;;1.53;100.00;97494.75;6100929;23;20036;-85
2020/12/28 01:21:17;;;;;;;30.73;16.80;;;;;;;1.50;100.00;97495.09;6098391;23;20036;-85
2020/12/28 01:23:44;;;;;;;33.47;17.10;;;;;;;1.39;100.00;97494.41;6111458;23;20017;-85
2020/12/28 01:26:09;;;;;;;33.08;15.77;;;;;;;1.37;100.00;97501.69;6097649;23;20013;-85
2020/12/28 01:28:43;;;;;;;30.63;16.23;;;;;;;1.26;100.00;97507.28;6100635;23;20019;-85
2020/12/28 01:31:20;;;;;;;30.38;15.15;;;;;;;1.21;100.00;97510.41;6099727;23;20024;-85
2020/12/28 01:33:45;;;;;;;27.35;15.18;;;;;;;1.25;100.00;97518.03;6100230;23;20014;-84
2020/12/28 01:36:13;;;;;;;29.35;14.95;;;;;;;1.24;100.00;97522.50;6085764;23;20060;-85
2020/12/28 01:38:41;;;;;;;33.97;16.35;;;;;;;1.16;100.00;97525.97;6101102;23;20018;-84
2020/12/28 01:41:12;;;;;;;29.42;16.88;;;;;;;1.20;100.00;97521.16;6100432;23;20104;-84
2020/12/28 01:43:40;;;;;;;31.17;16.75;;;;;;;1.22;100.00;97524.47;6101285;23;20454;-84
2020/12/28 01:46:09;;;;;;;36.50;17.40;;;;;;;1.25;100.00;97534.75;6111801;23;20017;-84
2020/12/28 01:48:40;;;;;;;35.65;16.83;;;;;;;1.36;100.00;97518.56;6100673;23;20025;-84
2020/12/28 01:51:08;;;;;;;37.25;17.98;;;;;;;1.52;100.00;97524.94;6096443;23;20021;-84
2020/12/28 01:53:40;;;;;;;41.53;20.17;;;;;;;1.72;100.00;97512.22;6100411;23;20014;-85
2020/12/28 01:56:06;;;;;;;48.17;22.00;;;;;;;1.84;100.00;97518.88;6110898;23;20820;-85
2020/12/28 01:58:33;;;;;;;44.95;20.65;;;;;;;1.91;100.00;97519.03;6149406;23;20092;-84
2020/12/28 02:01:01;;;;;;;42.20;22.05;;;;;;;1.91;100.00;97521.69;6101858;23;20040;-84
2020/12/28 02:03:30;;;;;;;50.85;21.40;;;;;;;1.90;100.00;97536.78;6098414;23;20017;-84
2020/12/28 02:05:55;;;;;;;49.50;21.90;;;;;;;1.96;100.00;97535.31;6125719;23;20024;-84
2020/12/28 02:08:26;;;;;;;54.90;22.55;;;;;;;2.00;100.00;97539.28;6099522;23;20041;-85
2020/12/28 02:10:58;;;;;;;46.40;20.45;;;;;;;1.99;100.00;97540.28;6101024;23;20084;-84
2020/12/28 02:13:32;;;;;;;55.92;23.00;;;;;;;2.01;100.00;97540.13;6088345;23;20053;-85
2020/12/28 02:15:58;;;;;;;60.28;24.85;;;;;;;2.11;100.00;97548.75;6087966;23;20100;-84
2020/12/28 02:18:32;;;;;;;53.80;23.95;;;;;;;2.24;100.00;97546.44;6114156;23;20076;-85
2020/12/28 02:20:58;;;;;;;61.88;25.70;;;;;;;2.37;100.00;97548.59;6122241;23;20034;-85
2020/12/28 02:23:29;;;;;;;52.33;22.13;;;;;;;2.41;100.00;97549.91;6122710;23;20080;-85
2020/12/28 02:25:58;;;;;;;50.17;23.25;;;;;;;2.45;100.00;97545.13;6100649;23;20092;-85
2020/12/28 02:28:33;;;;;;;54.55;24.83;;;;;;;2.45;100.00;97542.47;6123363;23;20041;-85
2020/12/28 02:30:59;;;;;;;61.90;24.58;;;;;;;2.56;100.00;97549.25;6099459;23;20059;-84
2020/12/28 02:33:28;;;;;;;55.88;24.10;;;;;;;2.53;100.00;97546.94;6099821;23;20010;-85
2020/12/28 02:36:02;;;;;;;55.10;23.83;;;;;;;2.54;100.00;97551.25;6101581;23;20006;-85
2020/12/28 02:38:27;;;;;;;53.28;24.70;;;;;;;2.60;100.00;97556.72;6091318;23;20087;-84
2020/12/28 02:40:53;;;;;;;57.85;23.08;;;;;;;2.61;100.00;97547.75;6115225;23;20117;-84
2020/12/28 02:43:24;;;;;;;52.60;22.80;;;;;;;2.65;100.00;97550.94;6151423;23;20044;-84
2020/12/28 02:45:55;;;;;;;54.65;23.40;;;;;;;2.69;100.00;97552.22;6121430;23;20092;-84
2020/12/28 02:48:21;;;;;;;53.42;22.67;;;;;;;2.77;100.00;97552.22;6112606;23;20157;-84
2020/12/28 02:50:48;;;;;;;46.28;21.38;;;;;;;2.72;100.00;97551.88;6101491;23;20093;-84
2020/12/28 02:53:20;;;;;;;48.90;22.63;;;;;;;2.67;100.00;97542.78;6076152;23;20024;-86
2020/12/28 02:55:51;;;;;;;46.78;21.00;;;;;;;2.65;100.00;97542.97;6091460;23;20316;-85
2020/12/28 02:58:16;;;;;;;52.70;22.95;;;;;;;2.69;100.00;97544.25;6114061;23;20017;-85
2020/12/28 03:00:47;;;;;;;48.53;20.13;;;;;;;2.57;100.00;97541.13;6100194;23;20833;-84
2020/12/28 03:03:21;;;;;;;53.00;22.52;;;;;;;2.54;100.00;97545.94;6101496;23;20781;-84
2020/12/28 03:05:51;;;;;;;50.90;21.52;;;;;;;2.54;100.00;97541.47;6126766;23;20068;-84
2020/12/28 03:08:19;;;;;;;46.92;19.35;;;;;;;2.49;100.00;97543.81;6126246;23;20048;-84
2020/12/28 03:10:51;;;;;;;47.38;21.52;;;;;;;2.51;100.00;97547.09;6126112;23;20017;-84
2020/12/28 03:13:25;;;;;;;50.58;20.95;;;;;;;2.54;100.00;97545.94;6102461;23;20113;-84
2020/12/28 03:15:53;;;;;;;44.70;19.05;;;;;;;2.47;100.00;97542.28;6126301;23;20005;-84
2020/12/28 03:18:25;;;;;;;44.80;20.35;;;;;;;2.48;100.00;97541.31;6101716;23;20022;-84
2020/12/28 03:20:53;;;;;;;40.00;19.88;;;;;;;2.43;100.00;97539.97;6125453;23;20160;-84
2020/12/28 03:23:18;;;;;;;46.58;21.17;;;;;;;2.53;100.00;97545.13;6101116;23;20017;-84
2020/12/28 03:25:49;;;;;;;43.97;20.70;;;;;;;2.56;100.00;97551.91;6108576;23;20020;-84
2020/12/28 03:28:17;;;;;;;47.03;22.30;;;;;;;2.61;100.00;97549.59;6127133;23;20023;-84
2020/12/28 03:30:43;;;;;;;43.47;21.45;;;;;;;2.65;100.00;97558.91;6099989;23;20021;-85
2020/12/28 03:33:08;;;;;;;48.42;21.02;;;;;;;2.67;100.00;97569.34;6134684;23;20013;-85
2020/12/28 03:35:34;;;;;;;41.15;20.33;;;;;;;2.71;100.00;97568.84;6101213;23;20024;-84
2020/12/28 03:38:00;;;;;;;43.83;20.95;;;;;;;2.77;100.00;97578.78;6102596;23;20020;-84
2020/12/28 03:40:27;;;;;;;45.75;22.08;;;;;;;2.80;100.00;97573.13;6100733;23;20021;-85
2020/12/28 03:42:57;;;;;;;45.60;21.45;;;;;;;2.94;100.00;97579.59;6102991;23;20076;-84
2020/12/28 03:45:25;;;;;;;42.45;20.75;;;;;;;2.90;100.00;97572.13;6126802;23;20373;-85
2020/12/28 03:48:01;;;;;;;47.08;21.08;;;;;;;2.86;100.00;97565.50;6101536;23;20009;-85
2020/12/28 03:50:27;;;;;;;50.15;21.23;;;;;;;2.87;100.00;97575.97;6100622;23;20489;-84
2020/12/28 03:52:54;;;;;;;43.42;20.85;;;;;;;2.92;100.00;97580.78;6097380;23;20013;-85
2020/12/28 03:55:20;;;;;;;44.67;20.63;;;;;;;2.95;100.00;97580.44;6092397;23;20104;-85
2020/12/28 03:57:48;;;;;;;45.40;20.95;;;;;;;2.95;100.00;97585.75;6102491;23;20403;-84
2020/12/28 04:00:16;;;;;;;46.65;22.77;;;;;;;2.96;100.00;97582.91;6089012;23;20014;-84
2020/12/28 04:02:42;;;;;;;47.55;22.60;;;;;;;2.97;100.00;97584.59;6123313;23;20034;-85
2020/12/28 04:05:08;;;;;;;44.95;22.65;;;;;;;3.02;100.00;97597.34;6100046;23;20455;-85
2020/12/28 04:07:36;;;;;;;49.22;22.15;;;;;;;3.03;100.00;97598.19;6090470;23;20013;-85
2020/12/28 04:10:01;;;;;;;53.95;23.52;;;;;;;3.06;100.00;97606.66;6113215;23;20331;-85
2020/12/28 04:12:32;;;;;;;51.40;24.27;;;;;;;3.05;100.00;97607.66;6109089;23;20019;-85
2020/12/28 04:15:00;;;;;;;54.47;25.02;;;;;;;3.01;100.00;97605.50;6096754;23;20145;-85
2020/12/28 04:17:28;;;;;;;52.33;24.27;;;;;;;2.99;100.00;97608.31;6120198;23;20018;-85
2020/12/28 04:19:53;;;;;;;52.97;22.67;;;;;;;3.04;100.00;97605.97;6096240;23;20014;-85
2020/12/28 04:22:21;;;;;;;50.80;22.90;;;;;;;2.99;100.00;97600.34;6096795;23;20025;-84
2020/12/28 04:24:49;;;;;;;54.42;24.42;;;;;;;2.98;100.00;97590.72;6123502;23;20017;-84
2020/12/28 04:27:17;;;;;;;48.60;24.25;;;;;;;2.98;100.00;97596.03;6120313;23;20042;-84
2020/12/28 04:29:42;;;;;;;52.17;24.42;;;;;;;2.97;100.00;97581.09;6096661;23;20017;-85
2020/12/28 04:32:10;;;;;;;51.33;22.60;;;;;;;2.95;99.98;97585.75;6095833;23;20312;-85
2020/12/28 04:34:36;;;;;;;48.20;23.90;;;;;;;3.04;99.65;97595.34;6096854;23;20317;-85
2020/12/28 04:37:01;;;;;;;52.38;23.85;;;;;;;2.97;99.58;97599.69;6087715;23;20010;-85
2020/12/28 04:39:29;;;;;;;50.80;22.33;;;;;;;2.95;99.53;97602.50;6090366;23;20033;-85
2020/12/28 04:41:55;;;;;;;52.55;22.65;;;;;;;2.92;99.77;97602.84;6106246;23;20093;-84
2020/12/28 04:44:20;;;;;;;41.47;20.65;;;;;;;2.98;99.39;97611.97;6120536;23;20376;-85
2020/12/28 04:46:46;;;;;;;43.25;21.73;;;;;;;2.95;98.58;97613.13;6096774;23;20016;-84
2020/12/28 04:49:14;;;;;;;40.40;19.98;;;;;;;2.94;98.40;97618.59;6083625;23;20037;-85
2020/12/28 04:51:42;;;;;;;43.55;20.98;;;;;;;2.92;98.70;97617.97;6080843;23;20076;-84
2020/12/28 04:54:07;;;;;;;41.75;20.23;;;;;;;2.99;98.34;97613.63;6095424;23;20088;-84
2020/12/28 04:56:36;;;;;;;40.83;20.58;;;;;;;3.04;98.28;97615.78;6084133;23;20018;-84
2020/12/28 04:59:01;;;;;;;40.78;19.90;;;;;;;3.13;98.17;97617.44;6086164;23;20462;-85
2020/12/28 05:01:27;;;;;;;37.15;19.10;;;;;;;3.07;98.14;97613.63;6095961;23;20010;-85
2020/12/28 05:03:53;;;;;;;38.15;19.58;;;;;;;3.06;97.95;97609.31;6096722;23;20447;-84
2020/12/28 05:06:21;;;;;;;42.05;19.60;;;;;;;2.97;97.92;97610.31;6095435;23;20395;-84
2020/12/28 05:08:47;;;;;;;37.33;19.05;;;;;;;2.93;97.98;97614.28;6096943;23;20013;-84
2020/12/28 05:11:13;;;;;;;38.08;19.00;;;;;;;2.92;98.07;97605.50;6098692;23;20037;-85
2020/12/28 05:13:39;;;;;;;43.35;20.92;;;;;;;2.92;98.83;97607.34;6101735;23;20010;-84
2020/12/28 05:16:09;;;;;;;39.63;20.90;;;;;;;2.91;98.32;97603.81;6086956;23;20006;-85
2020/12/28 05:18:37;;;;;;;41.00;20.10;;;;;;;2.87;98.14;97607.00;6103075;23;20449;-84
2020/12/28 05:21:03;;;;;;;35.63;19.00;;;;;;;2.83;98.07;97593.22;6107615;23;20017;-85
2020/12/28 05:23:28;;;;;;;31.60;17.30;;;;;;;2.80;97.83;97589.06;6101186;23;20017;-86
2020/12/28 05:25:56;;;;;;;28.98;15.57;;;;;;;2.75;97.56;97588.75;6125426;23;20024;-85
2020/12/28 05:28:25;;;;;;;27.35;15.85;;;;;;;2.75;97.19;97579.94;6100960;23;20021;-83
2020/12/28 05:33:37;;;;;;;28.77;13.43;;;;;;;2.70;97.30;97590.25;6129134;23;20013;-84
2020/12/28 05:36:13;;;;;;;29.40;12.95;;;;;;;2.75;97.29;97590.56;6101321;23;20601;-84
2020/12/28 05:38:41;;;;;;;25.40;13.25;;;;;;;2.78;96.74;97590.22;6103884;23;20013;-84
2020/12/28 05:41:12;;;;;;;26.65;12.25;;;;;;;2.77;96.72;97584.09;6104196;23;20493;-85
2020/12/28 05:43:43;;;;;;;21.08;12.75;;;;;;;2.70;96.97;97583.09;6088207;23;20089;-84
2020/12/28 05:46:23;;;;;;;22.80;11.73;;;;;;;2.75;97.17;97575.47;6085203;23;20032;-84
2020/12/28 05:48:54;;;;;;;22.15;11.70;;;;;;;2.62;96.60;97575.97;6097274;23;20021;-85
2020/12/28 05:51:21;;;;;;;24.08;13.18;;;;;;;2.59;96.85;97581.63;6123300;23;20022;-84
2020/12/28 05:53:47;;;;;;;23.00;11.50;;;;;;;2.57;96.39;97577.47;6101092;23;20009;-84
2020/12/28 05:56:14;;;;;;;24.80;11.80;;;;;;;2.40;97.38;97581.94;6110712;23;20063;-84
2020/12/28 05:58:44;;;;;;;20.52;11.02;;;;;;;2.35;97.00;97579.78;6101299;23;20012;-84
2020/12/28 06:01:21;;;;;;;25.63;11.30;;;;;;;2.32;97.60;97585.41;6100657;23;20028;-84
2020/12/28 06:03:50;;;;;;;25.98;12.82;;;;;;;2.26;97.71;97580.78;6101820;23;20013;-83
2020/12/28 06:06:16;;;;;;;25.42;12.32;;;;;;;2.28;97.49;97597.34;6099392;23;20435;-84
2020/12/28 06:08:45;;;;;;;27.08;11.88;;;;;;;2.24;98.02;97599.50;6095804;23;20071;-84
2020/12/28 06:11:16;;;;;;;21.85;11.13;;;;;;;2.23;97.93;97608.47;6115653;23;20014;-85
2020/12/28 06:13:52;;;;;;;22.70;11.75;;;;;;;2.30;97.66;97613.94;6108246;23;20088;-84
2020/12/28 06:16:23;;;;;;;24.13;11.18;;;;;;;2.31;98.39;97615.59;6103946;23;20028;-84
2020/12/28 06:18:58;;;;;;;23.05;12.88;;;;;;;2.43;98.51;97610.81;6109134;23;20428;-85
2020/12/28 06:21:37;;;;;;;23.17;11.40;;;;;;;2.41;98.00;97618.91;6100006;23;20447;-84
2020/12/28 06:24:04;;;;;;;25.52;12.82;;;;;;;2.39;98.34;97623.56;6124605;23;20060;-85
2020/12/28 06:26:30;;;;;;;26.95;12.35;;;;;;;2.39;98.59;97626.22;6100893;23;20880;-85
2020/12/28 06:29:06;;;;;;;24.90;12.80;;;;;;;2.39;98.47;97623.56;6124317;23;20017;-84
2020/12/28 06:31:33;;;;;;;27.27;13.15;;;;;;;2.39;98.31;97615.63;6101147;23;20010;-83
2020/12/28 06:34:01;;;;;;;23.98;12.07;;;;;;;2.43;98.10;97619.59;6100461;23;20021;-84
2020/12/28 06:36:26;;;;;;;27.90;13.30;;;;;;;2.40;98.71;97614.63;6062118;23;20009;-85
2020/12/28 06:39:02;;;;;;;28.73;12.95;;;;;;;2.36;98.53;97607.97;6089617;23;20025;-84
2020/12/28 06:41:30;;;;;;;25.67;12.75;;;;;;;2.37;98.05;97604.34;6125104;23;20014;-84
2020/12/28 06:43:59;;;;;;;28.38;12.32;;;;;;;2.35;98.27;97606.31;6100490;23;20028;-84
2020/12/28 06:46:24;;;;;;;30.63;12.57;;;;;;;2.33;98.87;97623.41;6100381;23;20040;-85
2020/12/28 06:48:49;;;;;;;27.58;12.95;;;;;;;2.28;98.54;97621.22;6100802;23;20399;-84
2020/12/28 06:51:16;;;;;;;24.70;11.65;;;;;;;2.26;97.96;97631.19;6087445;23;20009;-84
2020/12/28 06:53:41;;;;;;;23.27;12.13;;;;;;;2.26;98.54;97628.53;6108638;23;20379;-84
2020/12/28 06:56:09;;;;;;;25.50;11.93;;;;;;;2.19;98.64;97628.34;6074145;23;20093;-84
2020/12/28 06:58:35;;;;;;;22.35;11.93;;;;;;;2.19;98.62;97623.03;6080651;23;20634;-84
2020/12/28 07:01:10;;;;;;;24.98;12.75;;;;;;;2.17;98.75;97624.22;6104634;23;20044;-85
2020/12/28 07:03:39;;;;;;;24.45;11.50;;;;;;;2.09;98.32;97620.53;6112898;23;20028;-84
2020/12/28 07:06:04;;;;;;;23.02;12.35;;;;;;;2.18;98.24;97624.06;6099624;23;20622;-84
2020/12/28 07:08:32;;;;;;;23.50;11.90;;;;;;;2.15;98.03;97627.03;6101053;23;20029;-84
2020/12/28 07:11:02;;;;;;;21.42;11.13;;;;;;;2.23;98.79;97635.00;6100804;23;20017;-85
2020/12/28 07:13:30;;;;;;;22.50;12.05;;;;;;;2.25;98.97;97632.16;6124273;23;20782;-84
2020/12/28 07:16:06;;;;;;;19.35;10.95;;;;;;;2.28;98.16;97639.81;6089599;23;20014;-84
2020/12/28 07:18:32;;;;;;;24.70;12.48;;;;;;;2.27;98.75;97641.63;6126085;23;20473;-84
2020/12/28 07:20:58;;;;;;;33.03;13.07;;;;;;;2.28;98.73;97638.00;6114942;23;20092;-84
2020/12/28 07:23:32;;;;;;;29.55;12.20;;;;;;;2.25;99.20;97640.13;6101984;23;20013;-84
2020/12/28 07:26:11;;;;;;;31.95;13.35;;;;;;;2.27;98.92;97632.84;6099787;23;20009;-84
2020/12/28 07:28:38;;;;;;;21.95;10.43;;;;;;;2.19;98.99;97636.31;6097870;23;20065;-84
2020/12/28 07:31:05;;;;;;;23.80;12.32;;;;;;;2.16;98.55;97635.81;6102172;23;20024;-85
2020/12/28 07:33:31;;;;;;;26.98;11.55;;;;;;;2.23;98.67;97640.28;6103513;23;20009;-84
2020/12/28 07:36:10;;;;;;;25.63;11.80;;;;;;;2.24;98.76;97641.16;6126107;23;20060;-85
2020/12/28 07:38:38;;;;;;;28.73;13.23;;;;;;;2.31;99.14;97658.06;6067094;23;20044;-84
2020/12/28 07:41:04;;;;;;;24.95;12.48;;;;;;;2.33;98.43;97653.44;6113061;23;20025;-84
2020/12/28 07:43:33;;;;;;;27.60;11.95;;;;;;;2.39;98.70;97665.22;6103297;23;20323;-84
2020/12/28 07:46:18;;;;;;;22.95;12.27;;;;;;;2.45;98.50;97669.88;6102605;23;20024;-85
2020/12/28 07:48:45;;;;;;;30.48;12.63;;;;;;;2.54;98.57;97673.38;6084079;23;20017;-84
2020/12/28 07:51:14;;;;;;;24.98;11.10;;;;;;;2.55;98.15;97675.03;6139971;23;20018;-85
2020/12/28 07:54:17;;;;;;;22.90;11.45;;;;;;;2.62;98.61;97679.53;6095990;23;20021;-84
2020/12/28 07:56:50;;;;;;;24.00;11.38;;;;;;;2.65;97.59;97675.72;6111074;23;20068;-85
2020/12/28 07:59:38;;;;;;;25.55;11.93;;;;;;;2.66;98.00;97677.38;6113429;23;20038;-84
2020/12/28 08:02:34;;;;;;;23.25;10.82;;;;;;;2.68;97.37;97670.09;6117736;23;20014;-85
2020/12/28 08:05:00;;;;;;;25.67;11.82;;;;;;;2.72;97.39;97666.06;6123146;23;20013;-84
2020/12/28 08:07:25;;;;;;;29.67;12.23;;;;;;;2.72;97.28;97666.06;6137732;23;20078;-84
2020/12/28 08:09:55;;;;;;;19.25;10.52;;;;;;;2.73;96.96;97666.94;6092318;23;20005;-84
2020/12/28 08:12:21;;;;;;;20.40;11.00;;;;;;;2.75;97.20;97664.94;6103158;23;20029;-84
2020/12/28 08:14:58;;;;;;;23.23;11.25;;;;;;;2.79;96.88;97664.44;6121997;23;20018;-85
2020/12/28 08:17:27;;;;;;;24.30;11.65;;;;;;;2.76;96.90;97662.09;6112043;23;20009;-84
2020/12/28 08:20:11;;;;;;;20.05;10.75;;;;;;;2.70;97.42;97664.59;6101597;23;20063;-85
2020/12/28 08:22:40;;;;;;;26.13;11.18;;;;;;;2.65;97.21;97669.56;6095408;23;20012;-84
2020/12/28 08:25:07;;;;;;;24.67;11.57;;;;;;;2.53;96.75;97663.75;6116493;23;20343;-84
2020/12/28 08:27:37;;;;;;;22.75;11.05;;;;;;;2.52;97.61;97670.03;6100802;23;20461;-84
2020/12/28 08:30:08;;;;;;;22.55;10.63;;;;;;;2.47;97.06;97667.06;6126351;23;20013;-84
2020/12/28 08:32:35;;;;;;;17.95;10.25;;;;;;;2.40;97.57;97678.34;6101622;23;20040;-84
2020/12/28 08:35:01;;;;;;;23.35;11.63;;;;;;;2.45;97.89;97673.34;6088725;23;20014;-85
2020/12/28 08:37:32;;;;;;;24.50;11.43;;;;;;;2.45;97.43;97672.53;6124719;23;20017;-84
2020/12/28 08:39:58;;;;;;;23.92;11.85;;;;;;;2.53;97.48;97674.34;6126132;23;20020;-84
2020/12/28 08:42:32;;;;;;;21.83;11.10;;;;;;;2.52;97.49;97681.50;6090773;23;20021;-84
2020/12/28 08:45:01;;;;;;;24.90;12.02;;;;;;;2.49;98.15;97679.19;6143929;23;20024;-84
2020/12/28 08:47:28;;;;;;;30.92;12.70;;;;;;;2.52;98.06;97678.00;6116693;23;20340;-84
2020/12/28 08:50:05;;;;;;;21.50;11.30;;;;;;;2.51;97.54;97684.31;6117322;23;20013;-84
2020/12/28 08:52:30;;;;;;;24.55;10.63;;;;;;;2.43;97.74;97687.81;6128308;23;20024;-85
2020/12/28 08:54:58;;;;;;;25.70;11.93;;;;;;;2.41;97.85;97692.41;6132119;23;20087;-84
2020/12/28 08:57:30;;;;;;;22.05;11.20;;;;;;;2.35;98.07;97691.25;6090538;23;20023;-83
2020/12/28 09:00:06;;;;;;;23.35;11.35;;;;;;;2.35;97.94;97701.84;6088201;23;20084;-84
2020/12/28 09:02:34;;;;;;;24.13;11.43;;;;;;;2.32;97.89;97696.88;6114277;23;20017;-84
2020/12/28 09:04:59;;;;;;;23.45;11.57;;;;;;;2.28;98.22;97695.53;6111313;23;20324;-85
2020/12/28 09:07:33;;;;;;;26.10;11.80;;;;;;;2.27;98.54;97694.72;6098955;23;20044;-85
2020/12/28 09:10:05;;;;;;;23.50;12.07;;;;;;;2.28;98.75;97695.53;6110759;23;20009;-85
2020/12/28 09:12:38;;;;;;;20.75;11.70;;;;;;;2.30;98.68;97693.56;6111273;23;20839;-84
2020/12/28 09:15:04;;;;;;;22.52;11.82;;;;;;;2.30;98.98;97704.19;6095415;23;20072;-84
2020/12/28 09:17:35;;;;;;;24.85;11.13;;;;;;;2.31;99.41;97694.38;6125664;23;20583;-84
2020/12/28 09:20:02;;;;;;;25.23;11.63;;;;;;;2.35;98.62;97693.91;6101274;23;20397;-85
2020/12/28 09:22:31;;;;;;;23.65;11.57;;;;;;;2.48;99.11;97696.09;6117056;23;20547;-85
2020/12/28 09:25:01;;;;;;;23.73;11.25;;;;;;;2.60;98.98;97692.13;6129848;23;20009;-84
2020/12/28 09:27:30;;;;;;;21.13;11.20;;;;;;;2.62;99.24;97691.94;6135656;23;20477;-85
2020/12/28 09:30:06;;;;;;;23.15;10.80;;;;;;;2.67;99.58;97684.34;6102185;23;20009;-85
2020/12/28 09:32:31;;;;;;;25.52;12.13;;;;;;;2.68;99.44;97691.31;6105165;23;20017;-85
2020/12/28 09:34:57;;;;;;;27.27;11.27;;;;;;;2.74;99.43;97685.34;6107696;23;20327;-84
2020/12/28 09:37:23;;;;;;;24.25;10.80;;;;;;;2.78;99.11;97694.66;6096984;23;20029;-85
2020/12/28 09:39:48;;;;;;;23.38;11.63;;;;;;;2.78;99.22;97701.78;6093372;23;20013;-84
2020/12/28 09:42:18;;;;;;;24.00;13.13;;;;;;;2.81;99.54;97701.44;6103520;23;20009;-85
2020/12/28 09:44:45;;;;;;;17.25;9.73;;;;;;;2.86;99.24;97703.63;6133435;23;20438;-84
2020/12/28 09:47:15;;;;;;;22.73;10.57;;;;;;;2.92;99.36;97705.63;6087232;23;20005;-84
2020/12/28 09:49:42;;;;;;;;;;;;;;;3.04;99.35;97700.81;6103720;23;20018;-84
2020/12/28 09:52:11;;;;;;;17.80;10.10;;;;;;;3.14;99.11;97707.59;6130271;23;19963;-85
2020/12/28 09:55:01;;;;;;;18.15;9.48;;;;;;;3.30;98.65;97709.44;6100861;23;20116;-85
2020/12/28 09:57:29;;;;;;;16.70;9.75;;;;;;;3.36;98.43;97713.25;6101533;23;20116;-85
2020/12/28 09:59:55;;;;;;;19.33;9.40;;;;;;;3.33;98.13;97708.28;6101410;23;20156;-85
2020/12/28 10:02:22;;;;;;;17.65;8.98;;;;;;;3.29;98.27;97712.25;6124070;23;20167;-84
2020/12/28 10:04:48;;;;;;;20.05;9.93;;;;;;;3.33;98.46;97719.72;6132131;23;20100;-85
2020/12/28 10:07:14;;;;;;;16.98;10.05;;;;;;;3.27;97.69;97712.44;6074191;23;20388;-85
2020/12/28 10:09:41;;;;;;;17.35;9.15;;;;;;;3.26;98.06;97713.41;6122864;23;20020;-84
2020/12/28 10:12:07;;;;;;;15.65;9.85;;;;;;;3.25;97.50;97714.41;6100414;23;20026;-85
2020/12/28 10:14:35;;;;;;;17.17;9.38;;;;;;;3.12;98.01;97717.59;6100476;23;20018;-85
2020/12/28 10:17:04;;;;;;;16.90;9.35;;;;;;;3.21;97.51;97721.06;6132147;23;20017;-85
2020/12/28 10:19:32;;;;;;;17.70;9.43;;;;;;;3.20;97.79;97722.06;6104191;23;20475;-85
2020/12/28 10:22:03;;;;;;;18.20;10.07;;;;;;;3.30;97.58;97724.56;6106103;23;20390;-85
2020/12/28 10:24:32;;;;;;;13.82;8.50;;;;;;;3.39;97.90;97722.72;6062373;23;20546;-84
2020/12/28 10:27:01;;;;;;;15.45;8.68;;;;;;;3.53;97.61;97722.03;6101346;23;20006;-86
2020/12/28 10:29:29;;;;;;;13.65;7.53;;;;;;;3.60;96.56;97716.88;6062429;23;20048;-84
2020/12/28 10:31:57;;;;;;;12.90;7.85;;;;;;;3.60;96.53;97711.56;6100950;23;20015;-85
2020/12/28 10:34:24;;;;;;;13.63;7.70;;;;;;;3.50;96.27;97711.72;6097502;23;20463;-85
2020/12/28 10:36:50;;;;;;;11.57;7.47;;;;;;;3.49;96.65;97710.91;6096172;23;20398;-85
2020/12/28 10:39:18;;;;;;;15.02;7.50;;;;;;;3.53;96.43;97718.53;6098025;23;20009;-85
2020/12/28 10:41:44;;;;;;;13.05;8.10;;;;;;;3.59;96.29;97720.53;6112657;23;20025;-85
2020/12/28 10:44:35;;;;;;;12.75;7.30;;;;;;;3.58;96.15;97719.69;6100554;23;20485;-85
2020/12/28 10:47:02;;;;;;;11.57;7.22;;;;;;;3.60;96.39;97722.19;6151309;23;20009;-84
2020/12/28 10:49:30;;;;;;;14.23;6.72;;;;;;;3.56;95.85;97726.19;6098921;23;20141;-84
2020/12/28 10:52:02;;;;;;;13.20;7.72;;;;;;;3.57;95.93;97728.66;6150809;23;20462;-84
2020/12/28 10:54:29;;;;;;;11.02;7.32;;;;;;;3.65;95.93;97725.16;6114157;23;20080;-84
2020/12/28 10:56:58;;;;;;;15.57;7.10;;;;;;;3.66;95.46;97722.31;6101865;23;20017;-84
2020/12/28 10:59:31;;;;;;;14.02;8.50;;;;;;;3.66;95.78;97724.16;6125849;23;20308;-85
2020/12/28 11:01:57;;;;;;;16.20;7.78;;;;;;;3.68;95.48;97724.81;6114513;23;20022;-85
2020/12/28 11:04:22;;;;;;;12.65;6.95;;;;;;;3.67;95.48;97720.53;6125693;23;20013;-85
2020/12/28 11:06:52;;;;;;;11.55;6.70;;;;;;;3.75;95.11;97723.13;6126286;23;20025;-85
2020/12/28 11:09:25;;;;;;;10.43;7.28;;;;;;;3.82;94.81;97715.31;6101410;23;20013;-84
2020/12/28 11:11:53;;;;;;;13.85;7.28;;;;;;;3.77;94.22;97710.53;6097215;23;20022;-85
2020/12/28 11:14:20;;;;;;;13.73;6.53;;;;;;;3.75;94.32;97709.84;6114765;23;20018;-85
2020/12/28 11:16:48;;;;;;;10.85;6.32;;;;;;;3.64;94.08;97707.56;6097303;23;20443;-85
2020/12/28 11:19:16;;;;;;;10.45;6.70;;;;;;;3.72;94.23;97704.03;6110919;23;20029;-85
2020/12/28 11:21:47;;;;;;;9.85;6.93;;;;;;;3.84;93.83;97705.31;6096983;23;20013;-84
2020/12/28 11:24:15;;;;;;;10.57;7.18;;;;;;;3.86;92.89;97712.16;6097968;23;20088;-85
2020/12/28 11:26:45;;;;;;;13.75;6.45;;;;;;;3.82;93.59;97708.16;6088498;23;20493;-85
2020/12/28 11:29:15;;;;;;;10.05;6.40;;;;;;;3.92;92.58;97715.13;6096049;23;20024;-85
2020/12/28 11:31:43;;;;;;;;;;;;;;;4.02;92.99;97708.59;6066012;23;20426;-85
2020/12/28 11:34:14;;;;;;;11.00;5.80;;;;;;;4.08;92.45;97699.09;6110323;23;20246;-84
2020/12/28 11:36:46;;;;;;;14.05;5.63;;;;;;;4.01;92.03;97698.94;6096533;23;20010;-84